sensor_id;sensor_type;location;lat;lon;timestamp;P1;durP1;ratioP1;P2;durP2;ratioP2
13897;SDS011;7019;50.766;4.474;2022-12-18T00:02:24;85.53;;;47.77;;
13897;SDS011;7019;50.766;4.474;2022-12-18T00:04:51;100.87;;;51.77;;
13897;SDS011;7019;50.766;4.474;2022-12-18T00:07:19;91.57;;;48.67;;
13897;SDS011;7019;50.766;4.474;2022-12-18T00:09:46;81.73;;;45.40;;
13897;SDS011;7019;50.766;4.474;2022-12-18T00:12:14;91.30;;;44.23;;
13897;SDS011;7019;50.766;4.474;2022-12-18T00:14:43;86.83;;;44.33;;
13897;SDS011;7019;50.766;4.474;2022-12-18T00:17:11;79.77;;;44.23;;
13897;SDS011;7019;50.766;4.474;2022-12-18T00:19:38;90.10;;;45.27;;
13897;SDS011;7019;50.766;4.474;2022-12-18T00:22:05;82.10;;;45.20;;
13897;SDS011;7019;50.766;4.474;2022-12-18T00:24:33;86.20;;;46.03;;
13897;SDS011;7019;50.766;4.474;2022-12-18T00:27:00;89.40;;;48.50;;
13897;SDS011;7019;50.766;4.474;2022-12-18T00:29:27;95.77;;;50.17;;
13897;SDS011;7019;50.766;4.474;2022-12-18T00:31:54;93.93;;;47.83;;
13897;SDS011;7019;50.766;4.474;2022-12-18T00:34:21;93.10;;;47.77;;
13897;SDS011;7019;50.766;4.474;2022-12-18T00:36:48;87.10;;;45.03;;
13897;SDS011;7019;50.766;4.474;2022-12-18T00:39:15;92.50;;;45.20;;
13897;SDS011;7019;50.766;4.474;2022-12-18T00:41:44;82.40;;;44.27;;
13897;SDS011;7019;50.766;4.474;2022-12-18T00:44:28;87.93;;;43.67;;
13897;SDS011;7019;50.766;4.474;2022-12-18T00:46:56;88.50;;;44.73;;
13897;SDS011;7019;50.766;4.474;2022-12-18T00:49:23;84.70;;;44.30;;
13897;SDS011;7019;50.766;4.474;2022-12-18T00:51:50;81.63;;;43.00;;
13897;SDS011;7019;50.766;4.474;2022-12-18T00:54:17;80.10;;;42.97;;
13897;SDS011;7019;50.766;4.474;2022-12-18T00:56:46;77.77;;;42.60;;
13897;SDS011;7019;50.766;4.474;2022-12-18T00:59:13;82.00;;;41.13;;
13897;SDS011;7019;50.766;4.474;2022-12-18T01:01:40;74.50;;;39.73;;
13897;SDS011;7019;50.766;4.474;2022-12-18T01:04:08;73.47;;;38.67;;
13897;SDS011;7019;50.766;4.474;2022-12-18T01:06:35;68.60;;;37.40;;
13897;SDS011;7019;50.766;4.474;2022-12-18T01:09:02;71.40;;;38.23;;
13897;SDS011;7019;50.766;4.474;2022-12-18T01:11:30;72.03;;;37.03;;
13897;SDS011;7019;50.766;4.474;2022-12-18T01:14:01;71.10;;;37.83;;
13897;SDS011;7019;50.766;4.474;2022-12-18T01:16:28;69.07;;;38.07;;
13897;SDS011;7019;50.766;4.474;2022-12-18T01:18:55;68.60;;;39.03;;
13897;SDS011;7019;50.766;4.474;2022-12-18T01:21:22;81.90;;;42.90;;
13897;SDS011;7019;50.766;4.474;2022-12-18T01:23:53;73.07;;;38.17;;
13897;SDS011;7019;50.766;4.474;2022-12-18T01:26:21;80.60;;;39.03;;
13897;SDS011;7019;50.766;4.474;2022-12-18T01:28:49;81.77;;;41.13;;
13897;SDS011;7019;50.766;4.474;2022-12-18T01:31:19;69.37;;;38.60;;
13897;SDS011;7019;50.766;4.474;2022-12-18T01:33:48;69.07;;;37.67;;
13897;SDS011;7019;50.766;4.474;2022-12-18T01:36:16;112.70;;;51.17;;
13897;SDS011;7019;50.766;4.474;2022-12-18T01:38:45;80.20;;;41.10;;
13897;SDS011;7019;50.766;4.474;2022-12-18T01:41:13;75.77;;;40.50;;
13897;SDS011;7019;50.766;4.474;2022-12-18T01:43:45;78.03;;;39.40;;
13897;SDS011;7019;50.766;4.474;2022-12-18T01:46:15;75.40;;;39.73;;
13897;SDS011;7019;50.766;4.474;2022-12-18T01:48:45;76.40;;;39.90;;
13897;SDS011;7019;50.766;4.474;2022-12-18T01:51:14;69.30;;;38.33;;
13897;SDS011;7019;50.766;4.474;2022-12-18T01:53:42;75.83;;;40.43;;
13897;SDS011;7019;50.766;4.474;2022-12-18T01:56:12;78.37;;;40.67;;
13897;SDS011;7019;50.766;4.474;2022-12-18T01:58:44;65.47;;;37.10;;
13897;SDS011;7019;50.766;4.474;2022-12-18T02:01:18;70.23;;;36.13;;
13897;SDS011;7019;50.766;4.474;2022-12-18T02:03:46;67.37;;;36.37;;
13897;SDS011;7019;50.766;4.474;2022-12-18T02:06:15;71.97;;;37.97;;
13897;SDS011;7019;50.766;4.474;2022-12-18T02:08:48;72.40;;;38.43;;
13897;SDS011;7019;50.766;4.474;2022-12-18T02:11:25;70.63;;;37.70;;
13897;SDS011;7019;50.766;4.474;2022-12-18T02:14:00;70.20;;;37.33;;
13897;SDS011;7019;50.766;4.474;2022-12-18T02:16:37;76.13;;;39.37;;
13897;SDS011;7019;50.766;4.474;2022-12-18T02:19:16;73.83;;;39.07;;
13897;SDS011;7019;50.766;4.474;2022-12-18T02:22:03;75.33;;;38.33;;
13897;SDS011;7019;50.766;4.474;2022-12-18T02:24:41;76.57;;;37.07;;
13897;SDS011;7019;50.766;4.474;2022-12-18T02:27:16;68.47;;;36.27;;
13897;SDS011;7019;50.766;4.474;2022-12-18T02:29:46;64.17;;;35.97;;
13897;SDS011;7019;50.766;4.474;2022-12-18T02:32:18;73.60;;;36.03;;
13897;SDS011;7019;50.766;4.474;2022-12-18T02:34:50;74.70;;;36.07;;
13897;SDS011;7019;50.766;4.474;2022-12-18T02:37:19;74.97;;;36.97;;
13897;SDS011;7019;50.766;4.474;2022-12-18T02:39:48;74.03;;;38.83;;
13897;SDS011;7019;50.766;4.474;2022-12-18T02:42:18;74.00;;;37.17;;
13897;SDS011;7019;50.766;4.474;2022-12-18T02:44:47;78.87;;;40.73;;
13897;SDS011;7019;50.766;4.474;2022-12-18T02:47:16;77.43;;;38.20;;
13897;SDS011;7019;50.766;4.474;2022-12-18T02:49:47;78.17;;;37.20;;
13897;SDS011;7019;50.766;4.474;2022-12-18T02:52:22;79.13;;;39.20;;
13897;SDS011;7019;50.766;4.474;2022-12-18T02:54:57;79.00;;;37.93;;
13897;SDS011;7019;50.766;4.474;2022-12-18T02:57:36;72.33;;;38.33;;
13897;SDS011;7019;50.766;4.474;2022-12-18T03:00:10;69.47;;;36.83;;
13897;SDS011;7019;50.766;4.474;2022-12-18T03:02:39;76.17;;;35.10;;
13897;SDS011;7019;50.766;4.474;2022-12-18T03:05:15;57.77;;;31.77;;
13897;SDS011;7019;50.766;4.474;2022-12-18T03:07:46;65.87;;;35.47;;
13897;SDS011;7019;50.766;4.474;2022-12-18T03:10:19;70.53;;;34.60;;
13897;SDS011;7019;50.766;4.474;2022-12-18T03:12:53;62.13;;;31.20;;
13897;SDS011;7019;50.766;4.474;2022-12-18T03:15:26;59.37;;;29.17;;
13897;SDS011;7019;50.766;4.474;2022-12-18T03:17:57;53.10;;;31.93;;
13897;SDS011;7019;50.766;4.474;2022-12-18T03:20:29;56.10;;;29.10;;
13897;SDS011;7019;50.766;4.474;2022-12-18T03:22:59;52.93;;;28.50;;
13897;SDS011;7019;50.766;4.474;2022-12-18T03:25:32;49.77;;;28.10;;
13897;SDS011;7019;50.766;4.474;2022-12-18T03:28:04;58.60;;;29.77;;
13897;SDS011;7019;50.766;4.474;2022-12-18T03:30:34;53.27;;;30.40;;
13897;SDS011;7019;50.766;4.474;2022-12-18T03:33:05;63.13;;;31.83;;
13897;SDS011;7019;50.766;4.474;2022-12-18T03:35:38;55.23;;;30.60;;
13897;SDS011;7019;50.766;4.474;2022-12-18T03:38:07;62.70;;;30.30;;
13897;SDS011;7019;50.766;4.474;2022-12-18T03:40:45;61.80;;;31.03;;
13897;SDS011;7019;50.766;4.474;2022-12-18T03:43:24;56.70;;;31.13;;
13897;SDS011;7019;50.766;4.474;2022-12-18T03:46:02;65.60;;;30.60;;
13897;SDS011;7019;50.766;4.474;2022-12-18T03:48:34;49.63;;;27.23;;
13897;SDS011;7019;50.766;4.474;2022-12-18T03:51:05;56.67;;;29.47;;
13897;SDS011;7019;50.766;4.474;2022-12-18T03:53:37;51.97;;;28.40;;
13897;SDS011;7019;50.766;4.474;2022-12-18T03:56:09;53.10;;;27.87;;
13897;SDS011;7019;50.766;4.474;2022-12-18T03:58:39;53.33;;;25.97;;
13897;SDS011;7019;50.766;4.474;2022-12-18T04:01:08;47.37;;;26.63;;
13897;SDS011;7019;50.766;4.474;2022-12-18T04:03:39;51.30;;;27.30;;
13897;SDS011;7019;50.766;4.474;2022-12-18T04:06:08;53.60;;;27.80;;
13897;SDS011;7019;50.766;4.474;2022-12-18T04:08:37;55.20;;;27.90;;
13897;SDS011;7019;50.766;4.474;2022-12-18T04:11:05;49.73;;;27.97;;
13897;SDS011;7019;50.766;4.474;2022-12-18T04:13:33;50.13;;;25.67;;
13897;SDS011;7019;50.766;4.474;2022-12-18T04:16:03;52.30;;;28.40;;
13897;SDS011;7019;50.766;4.474;2022-12-18T04:18:31;55.33;;;27.23;;
13897;SDS011;7019;50.766;4.474;2022-12-18T04:20:58;48.43;;;28.43;;
13897;SDS011;7019;50.766;4.474;2022-12-18T04:23:25;51.47;;;27.40;;
13897;SDS011;7019;50.766;4.474;2022-12-18T04:25:52;44.17;;;26.20;;
13897;SDS011;7019;50.766;4.474;2022-12-18T04:28:19;42.87;;;24.67;;
13897;SDS011;7019;50.766;4.474;2022-12-18T04:30:46;44.40;;;24.40;;
13897;SDS011;7019;50.766;4.474;2022-12-18T04:33:16;42.60;;;22.03;;
13897;SDS011;7019;50.766;4.474;2022-12-18T04:35:44;40.90;;;21.77;;
13897;SDS011;7019;50.766;4.474;2022-12-18T04:38:11;37.87;;;22.80;;
13897;SDS011;7019;50.766;4.474;2022-12-18T04:40:38;38.37;;;22.50;;
13897;SDS011;7019;50.766;4.474;2022-12-18T04:43:05;39.37;;;21.47;;
13897;SDS011;7019;50.766;4.474;2022-12-18T04:45:33;41.87;;;22.90;;
13897;SDS011;7019;50.766;4.474;2022-12-18T04:48:00;35.27;;;20.67;;
13897;SDS011;7019;50.766;4.474;2022-12-18T04:50:29;40.53;;;22.00;;
13897;SDS011;7019;50.766;4.474;2022-12-18T04:52:57;42.47;;;21.33;;
13897;SDS011;7019;50.766;4.474;2022-12-18T04:55:24;40.37;;;19.63;;
13897;SDS011;7019;50.766;4.474;2022-12-18T04:57:51;33.97;;;20.27;;
13897;SDS011;7019;50.766;4.474;2022-12-18T05:00:19;35.17;;;20.10;;
13897;SDS011;7019;50.766;4.474;2022-12-18T05:02:46;40.73;;;22.40;;
13897;SDS011;7019;50.766;4.474;2022-12-18T05:05:14;38.20;;;20.97;;
13897;SDS011;7019;50.766;4.474;2022-12-18T05:07:42;38.43;;;21.70;;
13897;SDS011;7019;50.766;4.474;2022-12-18T05:10:09;40.23;;;21.40;;
13897;SDS011;7019;50.766;4.474;2022-12-18T05:12:36;39.50;;;20.83;;
13897;SDS011;7019;50.766;4.474;2022-12-18T05:15:23;41.80;;;21.57;;
13897;SDS011;7019;50.766;4.474;2022-12-18T05:17:50;38.20;;;21.00;;
13897;SDS011;7019;50.766;4.474;2022-12-18T05:20:18;36.83;;;20.77;;
13897;SDS011;7019;50.766;4.474;2022-12-18T05:22:46;35.77;;;21.20;;
13897;SDS011;7019;50.766;4.474;2022-12-18T05:25:14;33.83;;;20.23;;
13897;SDS011;7019;50.766;4.474;2022-12-18T05:27:41;35.00;;;20.13;;
13897;SDS011;7019;50.766;4.474;2022-12-18T05:30:08;36.33;;;20.30;;
13897;SDS011;7019;50.766;4.474;2022-12-18T05:32:36;33.60;;;19.77;;
13897;SDS011;7019;50.766;4.474;2022-12-18T05:35:05;33.10;;;19.47;;
13897;SDS011;7019;50.766;4.474;2022-12-18T05:37:34;35.47;;;18.63;;
13897;SDS011;7019;50.766;4.474;2022-12-18T05:40:02;38.30;;;20.60;;
13897;SDS011;7019;50.766;4.474;2022-12-18T05:42:30;44.50;;;24.53;;
13897;SDS011;7019;50.766;4.474;2022-12-18T05:44:58;48.67;;;22.67;;
13897;SDS011;7019;50.766;4.474;2022-12-18T05:47:25;46.80;;;24.13;;
13897;SDS011;7019;50.766;4.474;2022-12-18T05:49:53;40.17;;;23.43;;
13897;SDS011;7019;50.766;4.474;2022-12-18T05:52:21;43.57;;;22.70;;
13897;SDS011;7019;50.766;4.474;2022-12-18T05:54:48;38.73;;;22.47;;
13897;SDS011;7019;50.766;4.474;2022-12-18T05:57:16;40.33;;;21.77;;
13897;SDS011;7019;50.766;4.474;2022-12-18T05:59:43;41.53;;;22.23;;
13897;SDS011;7019;50.766;4.474;2022-12-18T06:02:10;42.67;;;24.53;;
13897;SDS011;7019;50.766;4.474;2022-12-18T06:04:37;35.60;;;21.50;;
13897;SDS011;7019;50.766;4.474;2022-12-18T06:07:04;42.53;;;22.13;;
13897;SDS011;7019;50.766;4.474;2022-12-18T06:09:32;39.00;;;20.83;;
13897;SDS011;7019;50.766;4.474;2022-12-18T06:11:59;38.57;;;21.17;;
13897;SDS011;7019;50.766;4.474;2022-12-18T06:14:27;42.40;;;20.80;;
13897;SDS011;7019;50.766;4.474;2022-12-18T06:16:54;41.70;;;22.47;;
13897;SDS011;7019;50.766;4.474;2022-12-18T06:19:21;39.57;;;20.43;;
13897;SDS011;7019;50.766;4.474;2022-12-18T06:21:48;40.37;;;19.87;;
13897;SDS011;7019;50.766;4.474;2022-12-18T06:24:16;38.00;;;22.00;;
13897;SDS011;7019;50.766;4.474;2022-12-18T06:26:43;41.23;;;21.80;;
13897;SDS011;7019;50.766;4.474;2022-12-18T06:29:10;39.70;;;21.73;;
13897;SDS011;7019;50.766;4.474;2022-12-18T06:31:38;36.47;;;21.40;;
13897;SDS011;7019;50.766;4.474;2022-12-18T06:34:05;40.27;;;22.53;;
13897;SDS011;7019;50.766;4.474;2022-12-18T06:36:33;41.63;;;22.20;;
13897;SDS011;7019;50.766;4.474;2022-12-18T06:39:00;33.80;;;20.83;;
13897;SDS011;7019;50.766;4.474;2022-12-18T06:41:27;40.07;;;20.63;;
13897;SDS011;7019;50.766;4.474;2022-12-18T06:43:54;39.20;;;19.93;;
13897;SDS011;7019;50.766;4.474;2022-12-18T06:46:21;36.17;;;18.60;;
13897;SDS011;7019;50.766;4.474;2022-12-18T06:48:49;39.90;;;19.63;;
13897;SDS011;7019;50.766;4.474;2022-12-18T06:51:18;35.83;;;18.60;;
13897;SDS011;7019;50.766;4.474;2022-12-18T06:53:46;34.03;;;19.73;;
13897;SDS011;7019;50.766;4.474;2022-12-18T06:56:13;37.77;;;19.77;;
13897;SDS011;7019;50.766;4.474;2022-12-18T06:58:40;39.23;;;20.27;;
13897;SDS011;7019;50.766;4.474;2022-12-18T07:01:09;36.37;;;19.93;;
13897;SDS011;7019;50.766;4.474;2022-12-18T07:03:37;33.80;;;19.70;;
13897;SDS011;7019;50.766;4.474;2022-12-18T07:06:06;33.00;;;20.07;;
13897;SDS011;7019;50.766;4.474;2022-12-18T07:08:39;33.83;;;19.93;;
13897;SDS011;7019;50.766;4.474;2022-12-18T07:11:06;38.07;;;20.90;;
13897;SDS011;7019;50.766;4.474;2022-12-18T07:13:33;39.70;;;21.40;;
13897;SDS011;7019;50.766;4.474;2022-12-18T07:16:03;51.90;;;24.83;;
13897;SDS011;7019;50.766;4.474;2022-12-18T07:18:32;37.43;;;19.90;;
13897;SDS011;7019;50.766;4.474;2022-12-18T07:21:02;36.33;;;19.43;;
13897;SDS011;7019;50.766;4.474;2022-12-18T07:23:31;36.33;;;19.33;;
13897;SDS011;7019;50.766;4.474;2022-12-18T07:26:00;37.50;;;20.30;;
13897;SDS011;7019;50.766;4.474;2022-12-18T07:28:29;48.77;;;24.50;;
13897;SDS011;7019;50.766;4.474;2022-12-18T07:30:56;43.47;;;25.57;;
13897;SDS011;7019;50.766;4.474;2022-12-18T07:33:23;37.07;;;20.77;;
13897;SDS011;7019;50.766;4.474;2022-12-18T07:35:51;37.33;;;20.30;;
13897;SDS011;7019;50.766;4.474;2022-12-18T07:38:18;34.90;;;19.47;;
13897;SDS011;7019;50.766;4.474;2022-12-18T07:40:46;34.17;;;18.73;;
13897;SDS011;7019;50.766;4.474;2022-12-18T07:43:13;40.07;;;19.73;;
13897;SDS011;7019;50.766;4.474;2022-12-18T07:45:41;30.17;;;17.23;;
13897;SDS011;7019;50.766;4.474;2022-12-18T07:48:09;33.33;;;18.57;;
13897;SDS011;7019;50.766;4.474;2022-12-18T07:50:36;31.70;;;18.43;;
13897;SDS011;7019;50.766;4.474;2022-12-18T07:53:04;38.87;;;18.50;;
13897;SDS011;7019;50.766;4.474;2022-12-18T07:55:31;31.93;;;18.00;;
13897;SDS011;7019;50.766;4.474;2022-12-18T07:58:01;35.77;;;19.60;;
13897;SDS011;7019;50.766;4.474;2022-12-18T08:00:29;36.53;;;18.57;;
13897;SDS011;7019;50.766;4.474;2022-12-18T08:02:57;36.47;;;20.17;;
13897;SDS011;7019;50.766;4.474;2022-12-18T08:05:24;30.17;;;18.13;;
13897;SDS011;7019;50.766;4.474;2022-12-18T08:07:52;28.40;;;17.37;;
13897;SDS011;7019;50.766;4.474;2022-12-18T08:10:19;29.60;;;16.37;;
13897;SDS011;7019;50.766;4.474;2022-12-18T08:12:48;29.07;;;16.30;;
13897;SDS011;7019;50.766;4.474;2022-12-18T08:15:18;28.50;;;15.07;;
13897;SDS011;7019;50.766;4.474;2022-12-18T08:17:45;31.47;;;16.50;;
13897;SDS011;7019;50.766;4.474;2022-12-18T08:20:12;27.73;;;16.60;;
13897;SDS011;7019;50.766;4.474;2022-12-18T08:22:40;28.07;;;15.87;;
13897;SDS011;7019;50.766;4.474;2022-12-18T08:25:08;24.87;;;14.83;;
13897;SDS011;7019;50.766;4.474;2022-12-18T08:27:35;21.87;;;13.67;;
13897;SDS011;7019;50.766;4.474;2022-12-18T08:30:03;23.20;;;14.33;;
13897;SDS011;7019;50.766;4.474;2022-12-18T08:32:33;21.97;;;13.27;;
13897;SDS011;7019;50.766;4.474;2022-12-18T08:35:00;20.80;;;13.07;;
13897;SDS011;7019;50.766;4.474;2022-12-18T08:37:27;25.93;;;14.10;;
13897;SDS011;7019;50.766;4.474;2022-12-18T08:39:54;20.90;;;12.80;;
13897;SDS011;7019;50.766;4.474;2022-12-18T08:42:21;24.83;;;13.80;;
13897;SDS011;7019;50.766;4.474;2022-12-18T08:45:06;20.93;;;13.83;;
13897;SDS011;7019;50.766;4.474;2022-12-18T08:47:35;23.33;;;14.63;;
13897;SDS011;7019;50.766;4.474;2022-12-18T08:50:02;24.73;;;15.93;;
13897;SDS011;7019;50.766;4.474;2022-12-18T08:52:31;34.70;;;22.23;;
13897;SDS011;7019;50.766;4.474;2022-12-18T08:54:59;33.57;;;19.90;;
13897;SDS011;7019;50.766;4.474;2022-12-18T08:57:26;28.30;;;18.30;;
13897;SDS011;7019;50.766;4.474;2022-12-18T08:59:53;30.23;;;18.87;;
13897;SDS011;7019;50.766;4.474;2022-12-18T09:02:20;25.00;;;16.33;;
13897;SDS011;7019;50.766;4.474;2022-12-18T09:04:49;27.87;;;16.37;;
13897;SDS011;7019;50.766;4.474;2022-12-18T09:07:16;26.20;;;16.40;;
13897;SDS011;7019;50.766;4.474;2022-12-18T09:09:43;24.70;;;14.80;;
13897;SDS011;7019;50.766;4.474;2022-12-18T09:12:10;22.03;;;15.30;;
13897;SDS011;7019;50.766;4.474;2022-12-18T09:14:37;23.93;;;14.47;;
13897;SDS011;7019;50.766;4.474;2022-12-18T09:17:04;23.13;;;13.90;;
13897;SDS011;7019;50.766;4.474;2022-12-18T09:19:31;19.90;;;13.63;;
13897;SDS011;7019;50.766;4.474;2022-12-18T09:21:59;26.07;;;16.57;;
13897;SDS011;7019;50.766;4.474;2022-12-18T09:24:26;26.73;;;17.13;;
13897;SDS011;7019;50.766;4.474;2022-12-18T09:26:53;27.13;;;17.83;;
13897;SDS011;7019;50.766;4.474;2022-12-18T09:29:21;31.30;;;19.07;;
13897;SDS011;7019;50.766;4.474;2022-12-18T09:31:48;26.97;;;17.17;;
13897;SDS011;7019;50.766;4.474;2022-12-18T09:34:15;25.87;;;16.30;;
13897;SDS011;7019;50.766;4.474;2022-12-18T09:36:44;23.93;;;16.10;;
13897;SDS011;7019;50.766;4.474;2022-12-18T09:39:13;24.20;;;16.30;;
13897;SDS011;7019;50.766;4.474;2022-12-18T09:41:41;28.40;;;16.23;;
13897;SDS011;7019;50.766;4.474;2022-12-18T09:44:13;23.77;;;15.73;;
13897;SDS011;7019;50.766;4.474;2022-12-18T09:46:47;24.40;;;15.87;;
13897;SDS011;7019;50.766;4.474;2022-12-18T09:49:19;34.30;;;18.93;;
13897;SDS011;7019;50.766;4.474;2022-12-18T09:51:54;38.57;;;21.57;;
13897;SDS011;7019;50.766;4.474;2022-12-18T09:54:25;43.73;;;25.70;;
13897;SDS011;7019;50.766;4.474;2022-12-18T09:56:59;42.47;;;24.80;;
13897;SDS011;7019;50.766;4.474;2022-12-18T09:59:29;43.50;;;24.27;;
13897;SDS011;7019;50.766;4.474;2022-12-18T10:02:05;61.70;;;30.67;;
13897;SDS011;7019;50.766;4.474;2022-12-18T10:04:43;46.70;;;24.77;;
13897;SDS011;7019;50.766;4.474;2022-12-18T10:07:15;56.43;;;27.30;;
13897;SDS011;7019;50.766;4.474;2022-12-18T10:09:51;42.67;;;23.63;;
13897;SDS011;7019;50.766;4.474;2022-12-18T10:12:28;47.00;;;27.10;;
13897;SDS011;7019;50.766;4.474;2022-12-18T10:15:01;38.50;;;23.93;;
13897;SDS011;7019;50.766;4.474;2022-12-18T10:17:35;32.30;;;22.53;;
13897;SDS011;7019;50.766;4.474;2022-12-18T10:20:10;37.57;;;22.17;;
13897;SDS011;7019;50.766;4.474;2022-12-18T10:22:48;30.67;;;19.67;;
13897;SDS011;7019;50.766;4.474;2022-12-18T10:25:25;31.53;;;19.03;;
13897;SDS011;7019;50.766;4.474;2022-12-18T10:27:58;27.77;;;17.50;;
13897;SDS011;7019;50.766;4.474;2022-12-18T10:30:33;27.30;;;17.93;;
13897;SDS011;7019;50.766;4.474;2022-12-18T10:33:00;27.40;;;16.37;;
13897;SDS011;7019;50.766;4.474;2022-12-18T10:35:28;24.17;;;16.20;;
13897;SDS011;7019;50.766;4.474;2022-12-18T10:37:58;23.83;;;16.33;;
13897;SDS011;7019;50.766;4.474;2022-12-18T10:40:29;23.80;;;16.20;;
13897;SDS011;7019;50.766;4.474;2022-12-18T10:43:03;20.53;;;14.80;;
13897;SDS011;7019;50.766;4.474;2022-12-18T10:45:32;24.53;;;15.30;;
13897;SDS011;7019;50.766;4.474;2022-12-18T10:48:00;27.43;;;17.50;;
13897;SDS011;7019;50.766;4.474;2022-12-18T10:50:28;26.47;;;16.57;;
13897;SDS011;7019;50.766;4.474;2022-12-18T10:52:59;30.47;;;17.33;;
13897;SDS011;7019;50.766;4.474;2022-12-18T10:55:32;33.27;;;17.00;;
13897;SDS011;7019;50.766;4.474;2022-12-18T10:58:13;27.00;;;17.53;;
13897;SDS011;7019;50.766;4.474;2022-12-18T11:00:53;28.10;;;18.50;;
13897;SDS011;7019;50.766;4.474;2022-12-18T11:03:36;27.80;;;17.33;;
13897;SDS011;7019;50.766;4.474;2022-12-18T11:06:06;29.33;;;18.37;;
13897;SDS011;7019;50.766;4.474;2022-12-18T11:08:35;31.43;;;19.50;;
13897;SDS011;7019;50.766;4.474;2022-12-18T11:11:04;36.83;;;21.07;;
13897;SDS011;7019;50.766;4.474;2022-12-18T11:13:41;34.33;;;21.47;;
13897;SDS011;7019;50.766;4.474;2022-12-18T11:16:22;34.27;;;20.43;;
13897;SDS011;7019;50.766;4.474;2022-12-18T11:18:49;31.13;;;19.30;;
13897;SDS011;7019;50.766;4.474;2022-12-18T11:21:16;30.10;;;19.63;;
13897;SDS011;7019;50.766;4.474;2022-12-18T11:23:46;30.10;;;18.50;;
13897;SDS011;7019;50.766;4.474;2022-12-18T11:26:16;37.20;;;22.93;;
13897;SDS011;7019;50.766;4.474;2022-12-18T11:28:45;30.97;;;18.80;;
13897;SDS011;7019;50.766;4.474;2022-12-18T11:31:21;28.17;;;17.10;;
13897;SDS011;7019;50.766;4.474;2022-12-18T11:33:58;28.33;;;17.57;;
13897;SDS011;7019;50.766;4.474;2022-12-18T11:36:31;27.13;;;17.17;;
13897;SDS011;7019;50.766;4.474;2022-12-18T11:39:04;26.83;;;17.17;;
13897;SDS011;7019;50.766;4.474;2022-12-18T11:41:41;27.33;;;16.43;;
13897;SDS011;7019;50.766;4.474;2022-12-18T11:44:35;24.57;;;16.50;;
13897;SDS011;7019;50.766;4.474;2022-12-18T11:47:09;21.57;;;14.67;;
13897;SDS011;7019;50.766;4.474;2022-12-18T11:49:44;25.93;;;15.73;;
13897;SDS011;7019;50.766;4.474;2022-12-18T11:52:16;23.17;;;14.70;;
13897;SDS011;7019;50.766;4.474;2022-12-18T11:54:47;22.67;;;15.40;;
13897;SDS011;7019;50.766;4.474;2022-12-18T11:57:23;19.00;;;14.07;;
13897;SDS011;7019;50.766;4.474;2022-12-18T12:00:01;21.03;;;14.23;;
13897;SDS011;7019;50.766;4.474;2022-12-18T12:02:38;21.23;;;14.67;;
13897;SDS011;7019;50.766;4.474;2022-12-18T12:05:28;21.93;;;14.57;;
13897;SDS011;7019;50.766;4.474;2022-12-18T12:08:06;21.73;;;13.73;;
13897;SDS011;7019;50.766;4.474;2022-12-18T12:10:42;21.77;;;13.90;;
13897;SDS011;7019;50.766;4.474;2022-12-18T12:13:29;18.23;;;12.90;;
13897;SDS011;7019;50.766;4.474;2022-12-18T12:16:08;18.77;;;13.33;;
13897;SDS011;7019;50.766;4.474;2022-12-18T12:18:43;25.67;;;13.50;;
13897;SDS011;7019;50.766;4.474;2022-12-18T12:21:33;17.37;;;13.03;;
13897;SDS011;7019;50.766;4.474;2022-12-18T12:24:07;20.43;;;12.83;;
13897;SDS011;7019;50.766;4.474;2022-12-18T12:26:45;19.73;;;12.40;;
13897;SDS011;7019;50.766;4.474;2022-12-18T12:29:26;20.00;;;12.13;;
13897;SDS011;7019;50.766;4.474;2022-12-18T12:32:04;19.93;;;12.83;;
13897;SDS011;7019;50.766;4.474;2022-12-18T12:34:45;19.97;;;13.13;;
13897;SDS011;7019;50.766;4.474;2022-12-18T12:37:20;18.47;;;13.23;;
13897;SDS011;7019;50.766;4.474;2022-12-18T12:39:55;21.53;;;13.97;;
13897;SDS011;7019;50.766;4.474;2022-12-18T12:42:25;18.60;;;11.23;;
13897;SDS011;7019;50.766;4.474;2022-12-18T12:45:16;19.30;;;11.57;;
13897;SDS011;7019;50.766;4.474;2022-12-18T12:47:48;19.07;;;11.90;;
13897;SDS011;7019;50.766;4.474;2022-12-18T12:50:17;19.83;;;11.83;;
13897;SDS011;7019;50.766;4.474;2022-12-18T12:52:47;20.70;;;12.83;;
13897;SDS011;7019;50.766;4.474;2022-12-18T12:55:19;17.57;;;11.67;;
13897;SDS011;7019;50.766;4.474;2022-12-18T12:57:48;19.50;;;11.93;;
13897;SDS011;7019;50.766;4.474;2022-12-18T13:00:24;19.53;;;11.87;;
13897;SDS011;7019;50.766;4.474;2022-12-18T13:02:56;20.43;;;12.40;;
13897;SDS011;7019;50.766;4.474;2022-12-18T13:05:32;17.73;;;10.83;;
13897;SDS011;7019;50.766;4.474;2022-12-18T13:08:05;18.97;;;11.53;;
13897;SDS011;7019;50.766;4.474;2022-12-18T13:10:35;19.93;;;11.30;;
13897;SDS011;7019;50.766;4.474;2022-12-18T13:13:04;19.23;;;12.23;;
13897;SDS011;7019;50.766;4.474;2022-12-18T13:15:36;22.47;;;13.87;;
13897;SDS011;7019;50.766;4.474;2022-12-18T13:20:48;17.17;;;11.80;;
13897;SDS011;7019;50.766;4.474;2022-12-18T13:23:26;17.97;;;11.70;;
13897;SDS011;7019;50.766;4.474;2022-12-18T13:25:55;22.63;;;12.67;;
13897;SDS011;7019;50.766;4.474;2022-12-18T13:28:23;20.87;;;13.17;;
13897;SDS011;7019;50.766;4.474;2022-12-18T13:31:57;22.93;;;13.93;;
13897;SDS011;7019;50.766;4.474;2022-12-18T13:34:35;20.30;;;12.50;;
13897;SDS011;7019;50.766;4.474;2022-12-18T13:43:24;24.60;;;13.93;;
13897;SDS011;7019;50.766;4.474;2022-12-18T13:49:03;20.93;;;12.40;;
13897;SDS011;7019;50.766;4.474;2022-12-18T13:51:46;23.63;;;13.90;;
13897;SDS011;7019;50.766;4.474;2022-12-18T13:54:18;22.53;;;13.40;;
13897;SDS011;7019;50.766;4.474;2022-12-18T13:56:47;24.73;;;14.27;;
13897;SDS011;7019;50.766;4.474;2022-12-18T13:59:16;24.47;;;14.17;;
13897;SDS011;7019;50.766;4.474;2022-12-18T14:01:48;23.57;;;14.60;;
13897;SDS011;7019;50.766;4.474;2022-12-18T14:04:19;26.43;;;14.73;;
13897;SDS011;7019;50.766;4.474;2022-12-18T14:06:49;22.77;;;14.77;;
13897;SDS011;7019;50.766;4.474;2022-12-18T14:09:20;27.60;;;14.57;;
13897;SDS011;7019;50.766;4.474;2022-12-18T14:11:51;23.47;;;14.63;;
13897;SDS011;7019;50.766;4.474;2022-12-18T14:14:40;23.50;;;14.47;;
13897;SDS011;7019;50.766;4.474;2022-12-18T14:17:10;23.27;;;14.27;;
13897;SDS011;7019;50.766;4.474;2022-12-18T14:19:40;21.10;;;13.80;;
13897;SDS011;7019;50.766;4.474;2022-12-18T14:22:18;24.73;;;14.80;;
13897;SDS011;7019;50.766;4.474;2022-12-18T14:24:47;21.73;;;13.73;;
13897;SDS011;7019;50.766;4.474;2022-12-18T14:27:36;24.03;;;14.90;;
13897;SDS011;7019;50.766;4.474;2022-12-18T14:30:16;23.47;;;14.17;;
13897;SDS011;7019;50.766;4.474;2022-12-18T14:33:00;24.67;;;15.23;;
13897;SDS011;7019;50.766;4.474;2022-12-18T14:35:28;23.40;;;14.97;;
13897;SDS011;7019;50.766;4.474;2022-12-18T14:38:08;24.90;;;14.80;;
13897;SDS011;7019;50.766;4.474;2022-12-18T14:40:36;25.73;;;14.87;;
13897;SDS011;7019;50.766;4.474;2022-12-18T14:43:04;27.47;;;15.07;;
13897;SDS011;7019;50.766;4.474;2022-12-18T14:45:34;26.10;;;15.53;;
13897;SDS011;7019;50.766;4.474;2022-12-18T14:48:08;28.50;;;16.43;;
13897;SDS011;7019;50.766;4.474;2022-12-18T14:50:40;27.27;;;16.27;;
13897;SDS011;7019;50.766;4.474;2022-12-18T14:53:16;26.33;;;15.70;;
13897;SDS011;7019;50.766;4.474;2022-12-18T14:55:46;34.07;;;16.63;;
13897;SDS011;7019;50.766;4.474;2022-12-18T14:58:14;25.47;;;16.23;;
13897;SDS011;7019;50.766;4.474;2022-12-18T15:00:43;24.13;;;15.37;;
13897;SDS011;7019;50.766;4.474;2022-12-18T15:03:13;24.53;;;15.50;;
13897;SDS011;7019;50.766;4.474;2022-12-18T15:05:45;25.87;;;15.53;;
13897;SDS011;7019;50.766;4.474;2022-12-18T15:08:29;28.07;;;15.60;;